Time;durP1;ratioP1;P1;durP2;ratioP2;P2;SDS_P1;SDS_P2;PMS_P1;PMS_P2;Temp;Humidity;BMP_temperature;BMP_pressure;BME280_temperature;BME280_humidity;BME280_pressure;Samples;Min_cycle;Max_cycle;Signal;HPM_P1;HPM_P2
2023/12/22 00:00:12;;;;;;;13.40;12.40;;;6.10;1.00;;;;;;4867983;29;20212;-43
2023/12/22 00:02:37;;;;;;;13.93;12.60;;;6.10;1.00;;;;;;4868154;29;20198;-44
2023/12/22 00:05:03;;;;;;;14.13;12.53;;;6.10;1.00;;;;;;4869391;29;20198;-49
2023/12/22 00:07:29;;;;;;;13.17;12.23;;;6.10;1.00;;;;;;4869082;29;20272;-46
2023/12/22 00:09:54;;;;;;;12.73;11.83;;;6.10;1.00;;;;;;4868805;29;20847;-44
2023/12/22 00:12:20;;;;;;;13.17;12.17;;;6.10;1.00;;;;;;4868776;29;20199;-44
2023/12/22 00:14:46;;;;;;;13.47;12.37;;;6.00;1.00;;;;;;4869432;29;20264;-44
2023/12/22 00:17:11;;;;;;;14.23;12.93;;;6.10;1.00;;;;;;4868406;29;20789;-47
2023/12/22 00:19:37;;;;;;;13.20;12.10;;;6.20;99.90;;;;;;4867419;29;20222;-46
2023/12/22 00:22:03;;;;;;;14.30;13.00;;;6.10;99.90;;;;;;4869123;29;20192;-47
2023/12/22 00:24:29;;;;;;;13.65;12.13;;;6.10;1.00;;;;;;4867473;29;20192;-43
2023/12/22 00:26:54;;;;;;;13.20;12.03;;;6.10;1.00;;;;;;4867382;29;20204;-45
2023/12/22 00:29:20;;;;;;;12.30;11.50;;;6.10;99.90;;;;;;4867726;29;20489;-44
2023/12/22 00:31:46;;;;;;;14.23;13.13;;;6.00;99.90;;;;;;4868923;29;20557;-45
2023/12/22 00:34:11;;;;;;;14.70;13.20;;;6.10;99.90;;;;;;4868642;29;20206;-43
2023/12/22 00:36:37;;;;;;;13.77;12.73;;;6.10;99.90;;;;;;4868253;29;20260;-44
2023/12/22 00:39:03;;;;;;;14.07;13.03;;;6.00;99.90;;;;;;4868684;29;20187;-45
2023/12/22 00:41:28;;;;;;;13.40;12.40;;;6.00;99.90;;;;;;4868652;29;20744;-46
2023/12/22 00:43:54;;;;;;;13.57;12.50;;;6.10;1.00;;;;;;4868194;29;20239;-44
2023/12/22 00:46:20;;;;;;;13.50;12.50;;;6.10;99.90;;;;;;4868352;29;20206;-44
2023/12/22 00:48:45;;;;;;;14.07;12.50;;;6.00;99.90;;;;;;4868678;29;20205;-43
2023/12/22 00:51:11;;;;;;;13.70;12.40;;;6.10;99.90;;;;;;4867668;29;20424;-45
2023/12/22 00:53:37;;;;;;;13.60;12.80;;;6.10;99.90;;;;;;4868032;29;20467;-45
2023/12/22 00:56:03;;;;;;;13.70;12.50;;;6.10;99.90;;;;;;4867686;29;20275;-46
2023/12/22 00:58:30;;;;;;;12.77;11.97;;;6.10;99.90;;;;;;4867163;29;20671;-47
2023/12/22 01:00:55;;;;;;;13.80;12.60;;;6.10;99.90;;;;;;4868204;29;20236;-46
2023/12/22 01:03:21;;;;;;;13.63;12.43;;;6.10;99.90;;;;;;4868424;29;20614;-45
2023/12/22 01:05:46;;;;;;;13.60;12.30;;;6.10;99.90;;;;;;4867803;29;20647;-45
2023/12/22 01:08:12;;;;;;;12.30;11.50;;;6.20;99.90;;;;;;4868499;29;20202;-44
2023/12/22 01:10:38;;;;;;;14.97;12.70;;;6.20;1.00;;;;;;4867723;29;20327;-46
2023/12/22 01:13:03;;;;;;;13.63;12.40;;;6.30;1.00;;;;;;4868363;29;20192;-46
2023/12/22 01:15:29;;;;;;;14.70;12.90;;;6.20;1.00;;;;;;4868060;29;20418;-45
2023/12/22 01:17:54;;;;;;;12.97;11.97;;;6.30;99.90;;;;;;4867886;29;20227;-44
2023/12/22 01:20:20;;;;;;;12.53;11.73;;;6.30;99.90;;;;;;4866338;29;20188;-46
2023/12/22 01:22:46;;;;;;;13.20;12.17;;;6.30;1.00;;;;;;4865761;29;20200;-45
2023/12/22 01:25:11;;;;;;;13.10;12.20;;;6.30;99.90;;;;;;4868189;29;20536;-47
2023/12/22 01:27:37;;;;;;;13.30;12.17;;;6.30;99.90;;;;;;4867596;29;20231;-46
2023/12/22 01:30:03;;;;;;;13.90;12.70;;;6.40;1.00;;;;;;4874513;29;20199;-44
2023/12/22 01:32:34;;;;;;;13.02;12.07;;;6.30;1.00;;;;;;4866773;29;20208;-46
2023/12/22 01:35:03;;;;;;;13.23;12.05;;;6.30;1.00;;;;;;4867049;29;20187;-45
2023/12/22 01:37:32;;;;;;;13.60;12.60;;;6.30;1.00;;;;;;4866446;29;20219;-46
2023/12/22 01:39:58;;;;;;;13.77;12.57;;;6.30;1.00;;;;;;4866454;29;20184;-45
2023/12/22 01:42:23;;;;;;;13.43;12.30;;;6.20;1.00;;;;;;4867920;29;20192;-46
2023/12/22 01:44:49;;;;;;;13.33;12.40;;;6.30;1.00;;;;;;4867429;29;20938;-47
2023/12/22 01:47:15;;;;;;;13.50;12.40;;;6.20;1.00;;;;;;4867683;29;20701;-43
2023/12/22 01:49:41;;;;;;;13.07;12.23;;;6.30;1.00;;;;;;4865228;29;20192;-45
2023/12/22 01:52:07;;;;;;;13.27;12.38;;;6.30;1.00;;;;;;4866314;29;20247;-44
2023/12/22 01:54:33;;;;;;;13.50;12.32;;;6.30;1.00;;;;;;4866831;29;20196;-46
2023/12/22 01:56:58;;;;;;;13.07;12.10;;;6.20;1.00;;;;;;4867556;29;20212;-45
2023/12/22 01:59:24;;;;;;;12.93;12.03;;;6.20;1.00;;;;;;4867212;29;20620;-47
2023/12/22 02:01:50;;;;;;;13.47;12.57;;;6.20;1.00;;;;;;4865579;29;20195;-46
2023/12/22 02:04:16;;;;;;;13.57;12.47;;;6.20;99.90;;;;;;4867029;29;21058;-45
2023/12/22 02:06:42;;;;;;;13.53;12.47;;;6.20;1.00;;;;;;4866656;29;20213;-45
2023/12/22 02:09:08;;;;;;;13.23;12.32;;;6.10;1.00;;;;;;4866286;29;21212;-45
2023/12/22 02:11:34;;;;;;;13.60;12.50;;;6.10;99.90;;;;;;4866899;29;20195;-44
2023/12/22 02:13:59;;;;;;;13.67;12.60;;;6.00;99.90;;;;;;4867178;29;20424;-47
2023/12/22 02:16:38;;;;;;;14.77;13.37;;;5.80;99.90;;;;;;4858631;29;20211;-47
2023/12/22 02:19:23;;;;;;;14.27;13.00;;;5.70;99.90;;;;;;4865859;29;20176;-48
2023/12/22 02:22:05;;;;;;;14.00;12.90;;;5.60;1.00;;;;;;4866091;29;20655;-46
2023/12/22 02:24:31;;;;;;;14.65;13.20;;;5.60;1.00;;;;;;4866612;29;20287;-47
2023/12/22 02:27:02;;;;;;;14.20;13.10;;;5.40;99.90;;;;;;4866935;29;20192;-44
2023/12/22 02:29:34;;;;;;;13.65;12.60;;;5.40;1.00;;;;;;4866627;29;20274;-45
2023/12/22 02:32:06;;;;;;;13.68;12.48;;;5.30;99.90;;;;;;4866412;29;20190;-48
2023/12/22 02:34:36;;;;;;;13.50;12.50;;;5.40;99.90;;;;;;4867459;29;20188;-45
2023/12/22 02:37:05;;;;;;;18.63;12.75;;;5.40;1.00;;;;;;4865480;29;20216;-45
2023/12/22 02:39:30;;;;;;;13.63;12.50;;;5.50;1.00;;;;;;4867434;29;20200;-45
2023/12/22 02:41:56;;;;;;;14.20;13.00;;;5.50;1.00;;;;;;4866107;29;20191;-46
2023/12/22 02:44:22;;;;;;;14.33;13.40;;;5.50;1.00;;;;;;4866843;29;20255;-44
2023/12/22 02:47:44;;;;;;;14.80;13.20;;;5.40;72.30;;;;;;4867184;29;20420;-46
2023/12/22 02:50:10;;;;;;;14.13;12.90;;;5.40;99.90;;;;;;4862525;29;20678;-46
2023/12/22 02:55:57;;;;;;;13.82;12.77;;;5.40;1.00;;;;;;4869034;29;20202;-45
2023/12/22 02:58:23;;;;;;;14.67;13.17;;;5.30;99.90;;;;;;4869635;29;20196;-44
2023/12/22 03:00:48;;;;;;;13.97;12.90;;;5.40;99.90;;;;;;4870336;29;20970;-46
2023/12/22 03:03:14;;;;;;;13.17;12.03;;;5.30;99.90;;;;;;4870413;29;20184;-47
2023/12/22 03:05:40;;;;;;;12.63;11.80;;;5.40;1.00;;;;;;4872502;29;20184;-47
2023/12/22 03:08:06;;;;;;;13.57;12.57;;;5.40;1.00;;;;;;4869925;29;20188;-44
2023/12/22 03:10:31;;;;;;;16.93;13.30;;;5.50;99.90;;;;;;4870374;29;20188;-44
2023/12/22 03:12:57;;;;;;;12.90;12.00;;;5.50;99.90;;;;;;4869272;29;20180;-44
2023/12/22 03:15:22;;;;;;;13.67;12.57;;;5.50;99.90;;;;;;4869703;29;20188;-53
2023/12/22 03:17:48;;;;;;;13.97;12.60;;;5.50;99.90;;;;;;4869750;29;20208;-53
2023/12/22 03:20:13;;;;;;;13.10;12.30;;;5.50;99.90;;;;;;4869735;29;20199;-53
2023/12/22 03:22:39;;;;;;;16.67;13.63;;;5.50;99.90;;;;;;4870276;29;20188;-53
2023/12/22 03:25:05;;;;;;;14.17;12.83;;;5.50;99.90;;;;;;4869523;29;20188;-54
2023/12/22 03:27:30;;;;;;;14.70;13.07;;;5.50;99.90;;;;;;4869907;29;20184;-52
2023/12/22 03:29:56;;;;;;;13.87;12.43;;;5.50;99.90;;;;;;4869339;29;20196;-53
2023/12/22 03:32:22;;;;;;;14.63;12.70;;;5.50;99.90;;;;;;4869324;29;20206;-53
2023/12/22 03:34:48;;;;;;;13.97;12.67;;;5.60;1.00;;;;;;4869073;29;20251;-51
2023/12/22 03:37:13;;;;;;;14.10;12.63;;;5.60;1.00;;;;;;4868405;29;20758;-51
2023/12/22 03:39:39;;;;;;;13.97;12.70;;;5.60;1.00;;;;;;4868908;29;20455;-54
2023/12/22 03:42:05;;;;;;;13.67;12.70;;;5.60;1.00;;;;;;4868749;29;20192;-54
2023/12/22 03:44:30;;;;;;;13.50;12.50;;;5.70;1.00;;;;;;4868388;29;20251;-53
2023/12/22 03:46:56;;;;;;;16.53;12.57;;;5.70;99.90;;;;;;4869465;29;20556;-53
2023/12/22 03:49:21;;;;;;;13.77;12.57;;;5.80;99.90;;;;;;4869125;29;20199;-55
2023/12/22 03:51:48;;;;;;;13.32;12.40;;;5.70;99.90;;;;;;4868422;29;20311;-52
2023/12/22 03:54:16;;;;;;;13.43;12.33;;;5.80;99.90;;;;;;4868945;29;20564;-52
2023/12/22 03:56:42;;;;;;;13.60;12.50;;;5.80;99.90;;;;;;4869599;29;20207;-54
2023/12/22 03:59:08;;;;;;;13.23;12.30;;;5.80;99.90;;;;;;4868527;29;20188;-53
2023/12/22 04:01:33;;;;;;;13.23;12.10;;;5.80;99.90;;;;;;4868110;29;20192;-50
2023/12/22 04:03:59;;;;;;;13.67;12.60;;;5.90;99.90;;;;;;4869494;29;20187;-53
2023/12/22 04:06:24;;;;;;;16.43;12.60;;;5.90;99.90;;;;;;4868460;29;20188;-53
2023/12/22 04:08:50;;;;;;;13.40;12.10;;;5.90;99.90;;;;;;4866653;29;20286;-54
2023/12/22 04:11:15;;;;;;;12.87;11.90;;;6.00;99.90;;;;;;4868691;29;20200;-55
2023/12/22 04:13:41;;;;;;;13.30;12.20;;;6.00;99.90;;;;;;4868482;29;20524;-55
2023/12/22 04:16:07;;;;;;;13.00;12.20;;;6.00;99.90;;;;;;4868333;29;20199;-52
2023/12/22 04:18:32;;;;;;;13.40;12.30;;;6.00;87.60;;;;;;4868421;29;20184;-56
2023/12/22 04:20:58;;;;;;;13.03;11.97;;;6.00;38.20;;;;;;4868516;29;20556;-54
2023/12/22 04:23:24;;;;;;;12.40;11.80;;;6.00;25.00;;;;;;4869214;29;20187;-51
2023/12/22 04:25:50;;;;;;;13.07;11.87;;;6.10;9.00;;;;;;4868383;29;20531;-52
2023/12/22 04:28:16;;;;;;;12.23;11.48;;;6.10;1.00;;;;;;4868331;29;20200;-55
2023/12/22 04:30:41;;;;;;;12.63;11.90;;;6.00;1.00;;;;;;4868615;29;20445;-55
2023/12/22 04:33:07;;;;;;;12.83;11.87;;;6.00;1.00;;;;;;4868812;29;20187;-53
2023/12/22 04:35:32;;;;;;;12.57;11.77;;;6.00;15.40;;;;;;4867728;29;20253;-56
2023/12/22 04:37:58;;;;;;;13.83;12.07;;;5.90;11.60;;;;;;4867703;29;20215;-53
2023/12/22 04:40:23;;;;;;;12.33;11.63;;;5.80;15.80;;;;;;4862598;29;20192;-52
2023/12/22 04:42:50;;;;;;;12.73;11.73;;;5.90;32.50;;;;;;4865685;29;20291;-53
2023/12/22 04:45:17;;;;;;;12.85;12.00;;;6.00;18.20;;;;;;4866911;29;20251;-54
2023/12/22 04:47:42;;;;;;;12.85;11.70;;;5.90;21.00;;;;;;4868284;29;20191;-55
2023/12/22 04:50:08;;;;;;;12.50;11.60;;;5.90;27.20;;;;;;4866504;29;20955;-54
2023/12/22 04:52:34;;;;;;;13.00;11.97;;;5.90;40.20;;;;;;4867816;29;20263;-56
2023/12/22 04:54:59;;;;;;;11.73;11.03;;;5.90;32.70;;;;;;4868478;29;21117;-54
2023/12/22 04:57:25;;;;;;;12.10;11.17;;;5.80;42.40;;;;;;4867492;29;20208;-55
2023/12/22 04:59:50;;;;;;;11.63;10.97;;;5.80;37.90;;;;;;4866872;29;20203;-56
2023/12/22 05:02:16;;;;;;;13.07;11.87;;;5.80;45.70;;;;;;4868556;29;20195;-57
2023/12/22 05:04:42;;;;;;;10.13;9.53;;;5.70;45.20;;;;;;4868078;29;20628;-55
2023/12/22 05:07:07;;;;;;;11.37;10.60;;;5.80;70.10;;;;;;4866001;29;20196;-54
2023/12/22 05:09:36;;;;;;;11.20;10.60;;;5.70;50.00;;;;;;4868169;29;20184;-50
2023/12/22 05:12:02;;;;;;;11.02;10.05;;;5.70;39.60;;;;;;4867520;29;20215;-54
2023/12/22 05:14:27;;;;;;;10.90;10.30;;;5.80;56.80;;;;;;4867551;29;20845;-55
2023/12/22 05:16:55;;;;;;;11.23;10.33;;;5.70;77.00;;;;;;4868268;29;20214;-54
2023/12/22 05:19:21;;;;;;;10.82;10.32;;;5.80;55.50;;;;;;4867576;29;20195;-53
2023/12/22 05:21:48;;;;;;;10.70;10.30;;;5.70;99.90;;;;;;4867682;29;20640;-52
2023/12/22 05:24:14;;;;;;;10.32;9.93;;;5.70;99.90;;;;;;4868320;29;20203;-55
2023/12/22 05:26:39;;;;;;;10.70;10.07;;;5.70;99.90;;;;;;4868047;29;20381;-51
2023/12/22 05:29:05;;;;;;;11.10;10.50;;;5.60;99.90;;;;;;4868363;29;20184;-55
2023/12/22 05:31:32;;;;;;;10.60;10.10;;;5.60;99.90;;;;;;4868047;29;20187;-54
2023/12/22 05:33:58;;;;;;;10.40;9.80;;;5.50;99.90;;;;;;4867648;29;20670;-56
2023/12/22 05:36:25;;;;;;;10.53;10.00;;;5.50;99.90;;;;;;4865843;29;20274;-54
2023/12/22 05:38:51;;;;;;;10.55;10.05;;;5.50;99.90;;;;;;4867080;29;20191;-51
2023/12/22 05:41:16;;;;;;;9.87;9.47;;;5.40;99.90;;;;;;4867755;29;20192;-46
2023/12/22 05:43:42;;;;;;;10.30;9.63;;;5.40;99.90;;;;;;4867426;29;20643;-43
2023/12/22 05:46:09;;;;;;;10.93;10.43;;;5.40;99.90;;;;;;4867653;29;20176;-43
2023/12/22 05:48:35;;;;;;;10.23;9.52;;;5.30;99.90;;;;;;4867437;29;20188;-45
2023/12/22 05:51:03;;;;;;;9.67;9.17;;;5.20;1.00;;;;;;4867645;29;20238;-44
2023/12/22 05:53:28;;;;;;;10.52;9.93;;;5.20;1.00;;;;;;4867248;29;20527;-44
2023/12/22 05:55:54;;;;;;;11.00;10.40;;;5.30;1.00;;;;;;4865456;29;20184;-44
2023/12/22 05:58:20;;;;;;;10.53;9.80;;;5.20;1.00;;;;;;4866833;29;20270;-44
2023/12/22 06:00:45;;;;;;;11.00;10.40;;;5.30;1.00;;;;;;4865500;29;21098;-44
2023/12/22 06:03:11;;;;;;;11.27;10.43;;;5.30;1.00;;;;;;4867185;29;20201;-43
2023/12/22 06:05:36;;;;;;;10.10;9.50;;;5.30;1.00;;;;;;4867342;29;20192;-44
2023/12/22 06:08:02;;;;;;;10.83;10.17;;;5.30;1.00;;;;;;4867365;29;20188;-45
2023/12/22 06:10:28;;;;;;;10.10;9.60;;;5.30;1.00;;;;;;4867144;29;20184;-44
2023/12/22 06:12:53;;;;;;;10.77;10.10;;;5.30;1.00;;;;;;4866769;29;20195;-45
2023/12/22 06:15:19;;;;;;;10.50;9.90;;;5.30;1.00;;;;;;4866428;29;20215;-44
2023/12/22 06:17:44;;;;;;;11.00;10.20;;;5.20;1.00;;;;;;4866990;29;20216;-44
2023/12/22 06:20:10;;;;;;;11.50;10.70;;;5.30;1.00;;;;;;4875130;29;20267;-43
2023/12/22 06:22:36;;;;;;;10.67;10.07;;;5.20;1.00;;;;;;4867111;29;20183;-45
2023/12/22 06:25:07;;;;;;;10.33;9.60;;;5.30;1.00;;;;;;4866537;29;20196;-46
2023/12/22 06:27:36;;;;;;;9.93;9.32;;;5.20;1.00;;;;;;4867278;29;20180;-45
2023/12/22 06:30:03;;;;;;;11.23;10.45;;;5.30;1.00;;;;;;4866490;29;20192;-43
2023/12/22 06:32:29;;;;;;;10.50;9.90;;;5.30;1.00;;;;;;4863513;29;20207;-44
2023/12/22 06:34:54;;;;;;;10.83;10.10;;;5.30;1.00;;;;;;4865681;29;20645;-44
2023/12/22 06:37:20;;;;;;;10.70;10.00;;;5.30;1.00;;;;;;4867113;29;20222;-47
2023/12/22 06:39:46;;;;;;;9.83;9.23;;;5.30;99.90;;;;;;4867091;29;20183;-44
2023/12/22 06:42:12;;;;;;;10.43;9.67;;;5.30;99.90;;;;;;4866548;29;20275;-44
2023/12/22 06:44:38;;;;;;;10.77;10.15;;;5.30;99.90;;;;;;4866133;29;20238;-46
2023/12/22 06:47:04;;;;;;;11.27;10.50;;;5.20;99.90;;;;;;4866795;29;20191;-43
2023/12/22 06:49:30;;;;;;;10.65;10.00;;;5.20;99.90;;;;;;4866444;29;20420;-44
2023/12/22 06:51:56;;;;;;;10.83;10.33;;;5.20;99.90;;;;;;4866721;29;20243;-42
2023/12/22 06:54:21;;;;;;;10.90;10.17;;;5.20;99.90;;;;;;4866187;29;20283;-46
2023/12/22 06:56:47;;;;;;;9.83;9.30;;;5.20;99.90;;;;;;4866947;29;20290;-45
2023/12/22 06:59:12;;;;;;;12.30;10.83;;;5.20;99.90;;;;;;4865664;29;20191;-42
2023/12/22 07:01:38;;;;;;;10.60;10.00;;;5.20;99.90;;;;;;4878292;29;20192;-50
2023/12/22 07:04:04;;;;;;;10.57;9.80;;;5.10;99.90;;;;;;4865547;29;20279;-53
2023/12/22 07:06:31;;;;;;;10.75;10.15;;;5.10;99.90;;;;;;4865087;29;20280;-54
2023/12/22 07:09:16;;;;;;;10.65;9.80;;;5.00;99.90;;;;;;4879767;29;20336;-52
2023/12/22 07:11:55;;;;;;;9.02;8.63;;;5.10;99.90;;;;;;4865585;29;20765;-53
2023/12/22 07:14:21;;;;;;;11.18;10.40;;;5.00;99.90;;;;;;4865426;29;20523;-54
2023/12/22 07:16:47;;;;;;;11.23;10.30;;;5.00;99.90;;;;;;4865591;29;20200;-50
2023/12/22 07:19:13;;;;;;;10.57;9.87;;;5.00;99.90;;;;;;4864515;29;20678;-54
2023/12/22 07:21:41;;;;;;;10.23;9.60;;;5.00;99.90;;;;;;4864134;29;20306;-51
2023/12/22 07:24:07;;;;;;;11.27;10.38;;;4.90;99.90;;;;;;4865051;29;20472;-53
2023/12/22 07:26:33;;;;;;;10.40;9.70;;;5.00;99.90;;;;;;4865430;29;20281;-51
2023/12/22 07:28:58;;;;;;;10.10;9.60;;;5.00;99.90;;;;;;4864058;29;20463;-54
2023/12/22 07:31:24;;;;;;;10.07;9.27;;;5.00;99.90;;;;;;4879606;29;20203;-50
2023/12/22 07:33:51;;;;;;;10.63;10.03;;;5.10;99.90;;;;;;4865058;29;20440;-55
2023/12/22 07:36:18;;;;;;;11.52;10.43;;;5.00;99.90;;;;;;4864076;29;20492;-53
2023/12/22 07:38:44;;;;;;;9.90;9.30;;;5.10;99.90;;;;;;4865971;29;20195;-52
2023/12/22 07:41:09;;;;;;;11.20;10.23;;;5.10;99.90;;;;;;4867724;29;20196;-54
2023/12/22 07:43:35;;;;;;;9.87;9.07;;;5.10;99.90;;;;;;4865553;29;21047;-54
2023/12/22 07:46:00;;;;;;;10.20;9.60;;;5.10;99.90;;;;;;4867269;29;20188;-52
2023/12/22 07:48:26;;;;;;;10.63;9.83;;;5.10;99.90;;;;;;4881643;29;20226;-50
2023/12/22 07:50:52;;;;;;;10.43;9.90;;;5.10;99.90;;;;;;4869487;29;20206;-53
2023/12/22 07:53:17;;;;;;;9.37;8.80;;;5.10;99.90;;;;;;4869549;29;20967;-50
2023/12/22 07:55:46;;;;;;;9.67;9.17;;;5.00;1.00;;;;;;4869261;29;20200;-52
2023/12/22 07:58:12;;;;;;;9.65;9.15;;;5.00;1.00;;;;;;4867792;29;20255;-54
2023/12/22 08:00:38;;;;;;;10.77;10.10;;;4.90;99.90;;;;;;4869199;29;20215;-52
2023/12/22 08:03:04;;;;;;;9.60;9.07;;;4.80;19.90;;;;;;4867170;29;20440;-54
2023/12/22 08:05:30;;;;;;;9.67;9.17;;;4.70;1.00;;;;;;4869140;29;20650;-56
2023/12/22 08:07:56;;;;;;;10.03;9.53;;;4.70;99.90;;;;;;4868474;29;20447;-52
2023/12/22 08:10:21;;;;;;;11.97;11.30;;;4.70;99.90;;;;;;4868249;29;20285;-53
2023/12/22 08:12:47;;;;;;;11.93;11.43;;;4.50;99.90;;;;;;4868660;29;20465;-53
2023/12/22 08:15:12;;;;;;;14.10;13.40;;;4.30;99.90;;;;;;4867359;29;20203;-53
2023/12/22 08:17:47;;;;;;;13.90;13.20;;;3.90;1.00;;;;;;4868533;29;20617;-50
2023/12/22 08:20:18;;;;;;;15.52;14.70;;;3.60;1.00;;;;;;4868092;29;20186;-51
2023/12/22 08:22:45;;;;;;;14.70;13.90;;;3.40;1.00;;;;;;4868632;29;20179;-51
2023/12/22 08:25:11;;;;;;;12.82;12.32;;;3.20;1.00;;;;;;4866589;29;20241;-49
2023/12/22 08:27:36;;;;;;;13.23;12.70;;;3.00;17.50;;;;;;4882870;29;20282;-49
2023/12/22 08:30:03;;;;;;;13.00;12.40;;;2.80;70.70;;;;;;4868896;29;20232;-54
2023/12/22 08:32:29;;;;;;;12.57;11.88;;;2.80;99.90;;;;;;4868112;29;20186;-53
2023/12/22 08:34:54;;;;;;;12.83;11.87;;;2.80;99.90;;;;;;4868881;29;20204;-53
2023/12/22 08:37:20;;;;;;;12.93;12.37;;;2.70;99.90;;;;;;4868053;29;20429;-54
2023/12/22 08:39:45;;;;;;;12.97;12.40;;;2.80;99.90;;;;;;4868118;29;20182;-53
2023/12/22 08:42:12;;;;;;;12.83;12.23;;;2.80;99.90;;;;;;4867678;29;20265;-54
2023/12/22 08:44:37;;;;;;;13.02;12.52;;;2.80;99.90;;;;;;4868294;29;20238;-50
2023/12/22 08:47:03;;;;;;;13.03;12.43;;;2.70;99.90;;;;;;4868746;29;20677;-52
2023/12/22 08:49:28;;;;;;;13.33;12.70;;;2.70;99.90;;;;;;4876104;29;20198;-54
2023/12/22 08:51:54;;;;;;;13.30;12.70;;;2.60;99.90;;;;;;4868331;29;20185;-50
2023/12/22 08:54:20;;;;;;;12.53;12.03;;;2.70;99.90;;;;;;4867747;29;20190;-51
2023/12/22 08:56:45;;;;;;;13.00;12.10;;;2.70;99.90;;;;;;4867452;29;20216;-54
2023/12/22 08:59:11;;;;;;;12.57;12.07;;;2.70;99.90;;;;;;4868709;29;20189;-51
2023/12/22 09:01:36;;;;;;;13.50;12.70;;;2.80;99.90;;;;;;4868624;29;20582;-50
2023/12/22 09:04:02;;;;;;;12.50;11.80;;;2.80;99.90;;;;;;4868688;29;20262;-52
2023/12/22 09:06:28;;;;;;;12.37;11.77;;;2.80;99.90;;;;;;4868293;29;20183;-49
2023/12/22 09:08:53;;;;;;;13.30;12.70;;;2.80;99.90;;;;;;4868352;29;20197;-46
2023/12/22 09:11:20;;;;;;;13.33;12.73;;;2.90;99.90;;;;;;4868367;29;20679;-50
2023/12/22 09:13:46;;;;;;;13.15;12.55;;;2.90;99.90;;;;;;4867337;29;20443;-45
2023/12/22 09:16:15;;;;;;;13.60;13.00;;;3.00;99.90;;;;;;4866553;29;20251;-46
2023/12/22 09:18:42;;;;;;;14.75;13.88;;;3.10;99.90;;;;;;4867188;29;21088;-44
2023/12/22 09:21:07;;;;;;;12.73;12.13;;;3.10;99.90;;;;;;4865061;29;20187;-47
2023/12/22 09:23:33;;;;;;;12.60;11.90;;;3.10;99.90;;;;;;4866806;29;20848;-47
2023/12/22 09:25:58;;;;;;;13.23;12.53;;;3.10;99.90;;;;;;4866001;29;20680;-44
2023/12/22 09:28:25;;;;;;;11.70;11.20;;;3.10;99.90;;;;;;4866739;29;20194;-45
2023/12/22 09:30:51;;;;;;;12.93;12.30;;;3.20;99.90;;;;;;4865698;29;20230;-48
2023/12/22 09:33:16;;;;;;;12.53;11.93;;;3.20;99.90;;;;;;4866196;29;20194;-48
2023/12/22 09:35:42;;;;;;;12.30;11.73;;;3.20;99.90;;;;;;4866610;29;20230;-44
2023/12/22 09:38:14;;;;;;;13.03;12.20;;;3.20;99.90;;;;;;4866896;29;20216;-48
2023/12/22 09:40:41;;;;;;;12.27;11.68;;;3.30;99.90;;;;;;4867219;29;20446;-45
2023/12/22 09:43:09;;;;;;;13.10;12.40;;;3.30;99.90;;;;;;4865443;29;20230;-46
2023/12/22 09:45:36;;;;;;;12.90;12.20;;;3.30;99.90;;;;;;4866235;29;20309;-46
2023/12/22 09:48:03;;;;;;;13.40;12.75;;;3.70;99.90;;;;;;4867216;29;20201;-49
2023/12/22 09:50:30;;;;;;;12.20;11.57;;;3.90;99.90;;;;;;4866991;29;20527;-44
2023/12/22 09:52:57;;;;;;;14.02;13.15;;;4.10;99.90;;;;;;4866113;29;20709;-47
2023/12/22 09:55:23;;;;;;;12.50;12.00;;;4.10;99.90;;;;;;4867091;29;20191;-45
2023/12/22 09:57:50;;;;;;;13.38;12.57;;;4.10;99.90;;;;;;4866292;29;20215;-50
2023/12/22 10:00:17;;;;;;;12.35;11.75;;;4.10;99.90;;;;;;4865674;29;20246;-44
2023/12/22 10:02:45;;;;;;;13.32;12.63;;;4.10;99.90;;;;;;4864796;29;20187;-45
2023/12/22 10:05:13;;;;;;;12.45;11.75;;;4.20;99.90;;;;;;4864018;29;20192;-45
2023/12/22 10:07:39;;;;;;;13.07;12.18;;;4.20;99.90;;;;;;4865174;29;20188;-43
2023/12/22 10:10:06;;;;;;;12.43;11.77;;;4.20;62.20;;;;;;4865079;29;20187;-44
2023/12/22 10:12:34;;;;;;;11.23;10.63;;;4.30;28.80;;;;;;4865083;29;20323;-43
2023/12/22 10:15:00;;;;;;;11.63;10.85;;;4.40;20.50;;;;;;4866012;29;20287;-47
2023/12/22 10:17:27;;;;;;;11.57;10.93;;;4.30;1.00;;;;;;4866943;29;20302;-46
2023/12/22 10:19:52;;;;;;;11.65;10.60;;;4.40;1.00;;;;;;4862413;29;20254;-44
2023/12/22 10:22:18;;;;;;;10.93;10.40;;;4.40;1.00;;;;;;4867299;29;20655;-45
2023/12/22 10:24:50;;;;;;;12.07;11.30;;;4.50;1.00;;;;;;4866489;29;20634;-46
2023/12/22 10:27:21;;;;;;;11.00;9.95;;;4.70;1.00;;;;;;4858501;29;20448;-46
2023/12/22 10:29:54;;;;;;;10.85;10.35;;;4.80;1.00;;;;;;4867061;29;20525;-47
2023/12/22 10:32:21;;;;;;;11.18;10.35;;;5.00;1.00;;;;;;4866952;29;20187;-46
2023/12/22 10:34:47;;;;;;;10.77;10.18;;;5.20;1.00;;;;;;4866763;29;20210;-45
2023/12/22 10:37:15;;;;;;;10.90;10.17;;;5.30;1.00;;;;;;4867090;29;20195;-47
2023/12/22 10:39:41;;;;;;;10.90;10.25;;;5.40;99.90;;;;;;4866870;29;20927;-45
2023/12/22 10:42:07;;;;;;;11.30;10.70;;;5.40;99.90;;;;;;4864565;29;20244;-44
2023/12/22 10:44:33;;;;;;;10.73;10.13;;;5.30;99.90;;;;;;4865049;29;20537;-43
2023/12/22 10:47:00;;;;;;;10.57;10.03;;;5.40;99.90;;;;;;4864585;29;20306;-47
2023/12/22 10:49:26;;;;;;;10.02;9.57;;;5.40;1.00;;;;;;4864754;29;20191;-43
2023/12/22 10:51:52;;;;;;;10.90;10.30;;;5.60;1.00;;;;;;4863530;29;20192;-43
2023/12/22 10:54:18;;;;;;;11.00;10.40;;;6.20;1.00;;;;;;4867090;29;20191;-45
2023/12/22 10:56:44;;;;;;;10.30;9.80;;;6.70;99.90;;;;;;4866575;29;20951;-47
2023/12/22 10:59:09;;;;;;;10.80;10.20;;;6.60;99.90;;;;;;4865020;29;20436;-45
2023/12/22 11:01:38;;;;;;;10.00;9.50;;;6.60;1.00;;;;;;4874304;29;20700;-45
2023/12/22 11:04:12;;;;;;;10.38;9.73;;;6.40;1.00;;;;;;4866905;29;20659;-44
2023/12/22 11:06:40;;;;;;;10.70;10.20;;;6.20;1.00;;;;;;4863686;29;20639;-44
2023/12/22 11:09:08;;;;;;;10.07;9.57;;;6.00;99.90;;;;;;4864758;29;20180;-46
2023/12/22 11:11:36;;;;;;;11.50;10.90;;;5.80;99.90;;;;;;4863558;29;20178;-46
2023/12/22 11:14:03;;;;;;;11.23;10.73;;;5.20;99.90;;;;;;4867219;29;20191;-45
2023/12/22 11:16:29;;;;;;;11.48;10.98;;;5.00;99.90;;;;;;4867817;29;20275;-46
2023/12/22 11:18:56;;;;;;;11.18;10.73;;;4.70;1.00;;;;;;4865858;29;20188;-43
2023/12/22 11:21:22;;;;;;;10.10;9.70;;;4.60;1.00;;;;;;4865063;29;20270;-43
2023/12/22 11:23:53;;;;;;;10.77;10.27;;;4.50;1.00;;;;;;4867638;29;20210;-43
2023/12/22 11:26:20;;;;;;;11.77;10.95;;;4.40;1.00;;;;;;4868215;29;20555;-51
2023/12/22 11:28:47;;;;;;;12.35;11.40;;;4.30;1.00;;;;;;4867679;29;20887;-48
2023/12/22 11:31:13;;;;;;;11.63;11.13;;;4.40;1.00;;;;;;4870113;29;20195;-50
2023/12/22 11:33:44;;;;;;;11.40;10.90;;;4.50;1.00;;;;;;4869101;29;20187;-49
2023/12/22 11:36:12;;;;;;;10.70;10.30;;;4.60;1.00;;;;;;4868839;29;20196;-48
2023/12/22 11:38:38;;;;;;;11.07;10.48;;;4.90;1.00;;;;;;4868014;29;20238;-49
2023/12/22 11:41:06;;;;;;;11.52;10.85;;;5.20;1.00;;;;;;4867831;29;20230;-51
2023/12/22 11:43:33;;;;;;;10.90;10.30;;;5.40;99.90;;;;;;4868203;29;20314;-50
2023/12/22 11:46:03;;;;;;;11.60;10.90;;;5.60;1.00;;;;;;4867664;29;20240;-51
2023/12/22 11:48:32;;;;;;;11.05;10.57;;;5.60;99.90;;;;;;4867354;29;20196;-47
2023/12/22 11:50:58;;;;;;;12.82;11.82;;;5.50;1.00;;;;;;4868236;29;20200;-49
2023/12/22 11:53:25;;;;;;;11.40;10.73;;;5.40;50.30;;;;;;4869297;29;20203;-49
2023/12/22 11:56:05;;;;;;;12.07;11.48;;;5.40;99.90;;;;;;4868425;29;20200;-52
2023/12/22 11:58:35;;;;;;;10.90;10.30;;;5.30;1.00;;;;;;4867153;29;20251;-52
2023/12/22 12:01:10;;;;;;;12.02;11.20;;;5.30;1.00;;;;;;4866623;29;20750;-50
2023/12/22 12:03:47;;;;;;;11.65;10.90;;;5.20;1.00;;;;;;4864798;29;20194;-49
2023/12/22 12:06:25;;;;;;;11.25;10.55;;;5.20;27.00;;;;;;4864802;29;20246;-50
2023/12/22 12:08:53;;;;;;;11.07;10.35;;;5.20;1.00;;;;;;4864715;29;20673;-50
2023/12/22 12:11:19;;;;;;;10.80;10.30;;;5.20;29.00;;;;;;4864170;29;20199;-52
2023/12/22 12:13:46;;;;;;;11.55;10.85;;;5.30;1.00;;;;;;4865403;29;20211;-55
2023/12/22 12:16:13;;;;;;;10.82;10.13;;;5.40;99.90;;;;;;4865228;29;20191;-50
2023/12/22 12:18:39;;;;;;;10.65;10.15;;;5.60;99.90;;;;;;4865913;29;20706;-52
2023/12/22 12:21:10;;;;;;;11.55;10.85;;;5.80;99.90;;;;;;4864330;29;20347;-53
2023/12/22 12:23:36;;;;;;;11.45;10.85;;;6.00;99.90;;;;;;4879964;29;20426;-50
2023/12/22 12:26:02;;;;;;;10.57;9.73;;;6.10;13.70;;;;;;4866316;29;20184;-52
2023/12/22 12:28:35;;;;;;;11.27;10.37;;;6.20;1.00;;;;;;4866434;29;20568;-54
2023/12/22 12:31:04;;;;;;;11.98;10.98;;;6.20;99.90;;;;;;4866200;29;20200;-52
2023/12/22 12:33:30;;;;;;;11.00;10.40;;;6.30;66.30;;;;;;4866062;29;20494;-50
2023/12/22 12:36:04;;;;;;;11.13;10.47;;;6.40;1.00;;;;;;4866311;29;20436;-49
2023/12/22 12:38:57;;;;;;;12.07;10.88;;;6.40;1.00;;;;;;4865628;29;20472;-52
2023/12/22 12:41:31;;;;;;;10.63;10.02;;;6.40;1.00;;;;;;4865612;29;20184;-50
2023/12/22 12:43:58;;;;;;;11.27;10.60;;;6.30;1.00;;;;;;4866279;29;20238;-50